sensor_id;sensor_type;location;lat;lon;timestamp;pressure;altitude;pressure_sealevel;temperature;humidity
74613;BME280;63119;51.788;8.824;2024-03-22T00:01:39;100592.59;;;10.05;87.21
74613;BME280;63119;51.788;8.824;2024-03-22T00:04:04;100596.16;;;10.04;87.13
74613;BME280;63119;51.788;8.824;2024-03-22T00:06:29;100589.19;;;10.03;86.84
74613;BME280;63119;51.788;8.824;2024-03-22T00:08:54;100585.69;;;9.86;88.09
74613;BME280;63119;51.788;8.824;2024-03-22T00:11:20;100594.59;;;9.53;90.32
74613;BME280;63119;51.788;8.824;2024-03-22T00:13:45;100587.97;;;9.61;90.24
74613;BME280;63119;51.788;8.824;2024-03-22T00:16:10;100592.50;;;9.75;89.65
74613;BME280;63119;51.788;8.824;2024-03-22T00:18:35;100578.84;;;9.82;88.08
74613;BME280;63119;51.788;8.824;2024-03-22T00:21:01;100584.59;;;9.91;89.03
74613;BME280;63119;51.788;8.824;2024-03-22T00:23:27;100588.06;;;9.91;88.01
74613;BME280;63119;51.788;8.824;2024-03-22T00:25:54;100586.09;;;9.95;88.10
74613;BME280;63119;51.788;8.824;2024-03-22T00:28:19;100580.81;;;9.95;88.66
74613;BME280;63119;51.788;8.824;2024-03-22T00:30:44;100588.50;;;9.99;88.42
74613;BME280;63119;51.788;8.824;2024-03-22T00:33:10;100586.78;;;9.98;88.43
74613;BME280;63119;51.788;8.824;2024-03-22T00:35:35;100591.91;;;10.01;88.22
74613;BME280;63119;51.788;8.824;2024-03-22T00:38:00;100591.84;;;10.03;89.06
74613;BME280;63119;51.788;8.824;2024-03-22T00:40:25;100584.06;;;10.00;88.49
74613;BME280;63119;51.788;8.824;2024-03-22T00:42:51;100584.41;;;9.78;89.92
74613;BME280;63119;51.788;8.824;2024-03-22T00:45:16;100580.41;;;9.86;89.15
74613;BME280;63119;51.788;8.824;2024-03-22T00:47:41;100579.13;;;9.78;90.17
74613;BME280;63119;51.788;8.824;2024-03-22T00:50:07;100568.56;;;9.78;90.58
74613;BME280;63119;51.788;8.824;2024-03-22T00:52:32;100577.50;;;9.75;90.69
74613;BME280;63119;51.788;8.824;2024-03-22T00:54:57;100574.44;;;9.83;90.65
74613;BME280;63119;51.788;8.824;2024-03-22T00:57:23;100569.56;;;9.91;89.94
74613;BME280;63119;51.788;8.824;2024-03-22T00:59:48;100576.97;;;10.00;89.08
74613;BME280;63119;51.788;8.824;2024-03-22T01:02:13;100568.38;;;9.97;88.77
74613;BME280;63119;51.788;8.824;2024-03-22T01:04:38;100570.94;;;9.98;89.56
74613;BME280;63119;51.788;8.824;2024-03-22T01:07:04;100565.75;;;9.97;89.05
74613;BME280;63119;51.788;8.824;2024-03-22T01:09:29;100561.22;;;9.99;89.76
74613;BME280;63119;51.788;8.824;2024-03-22T01:11:54;100545.59;;;9.94;90.19
74613;BME280;63119;51.788;8.824;2024-03-22T01:14:19;100536.84;;;9.94;89.89
74613;BME280;63119;51.788;8.824;2024-03-22T01:16:45;100530.53;;;9.80;90.97
74613;BME280;63119;51.788;8.824;2024-03-22T01:19:10;100537.53;;;9.81;91.64
74613;BME280;63119;51.788;8.824;2024-03-22T01:21:35;100526.78;;;9.84;91.11
74613;BME280;63119;51.788;8.824;2024-03-22T01:24:01;100518.34;;;9.94;90.03
74613;BME280;63119;51.788;8.824;2024-03-22T01:26:26;100517.03;;;10.01;90.47
74613;BME280;63119;51.788;8.824;2024-03-22T01:28:51;100519.66;;;10.01;90.38
74613;BME280;63119;51.788;8.824;2024-03-22T01:31:16;100525.28;;;10.10;89.34
74613;BME280;63119;51.788;8.824;2024-03-22T01:33:42;100524.44;;;10.10;89.06
74613;BME280;63119;51.788;8.824;2024-03-22T01:36:07;100524.22;;;10.14;88.91
74613;BME280;63119;51.788;8.824;2024-03-22T01:38:32;100526.22;;;10.09;89.50
74613;BME280;63119;51.788;8.824;2024-03-22T01:40:57;100515.56;;;10.11;89.02
74613;BME280;63119;51.788;8.824;2024-03-22T01:43:23;100517.88;;;10.17;88.52
74613;BME280;63119;51.788;8.824;2024-03-22T01:45:48;100518.47;;;10.22;88.43
74613;BME280;63119;51.788;8.824;2024-03-22T01:48:13;100509.53;;;10.09;89.78
74613;BME280;63119;51.788;8.824;2024-03-22T01:50:39;100520.00;;;10.10;89.44
74613;BME280;63119;51.788;8.824;2024-03-22T01:53:04;100505.53;;;10.02;90.64
74613;BME280;63119;51.788;8.824;2024-03-22T01:55:30;100509.53;;;10.09;90.15
74613;BME280;63119;51.788;8.824;2024-03-22T01:57:56;100498.94;;;10.09;89.51
74613;BME280;63119;51.788;8.824;2024-03-22T02:00:21;100493.66;;;10.09;90.02
74613;BME280;63119;51.788;8.824;2024-03-22T02:02:47;100479.16;;;10.00;90.17
74613;BME280;63119;51.788;8.824;2024-03-22T02:05:16;100480.00;;;10.01;89.59
74613;BME280;63119;51.788;8.824;2024-03-22T02:07:44;100482.41;;;10.05;90.63
74613;BME280;63119;51.788;8.824;2024-03-22T02:10:10;100479.94;;;10.18;89.87
74613;BME280;63119;51.788;8.824;2024-03-22T02:12:39;100459.03;;;10.13;89.65
74613;BME280;63119;51.788;8.824;2024-03-22T02:15:05;100454.31;;;10.18;89.88
74613;BME280;63119;51.788;8.824;2024-03-22T02:17:32;100444.03;;;10.14;89.99
74613;BME280;63119;51.788;8.824;2024-03-22T02:19:57;100438.38;;;10.20;89.89
74613;BME280;63119;51.788;8.824;2024-03-22T02:22:22;100434.81;;;10.21;89.11
74613;BME280;63119;51.788;8.824;2024-03-22T02:24:48;100433.09;;;10.20;89.81
74613;BME280;63119;51.788;8.824;2024-03-22T02:27:13;100425.72;;;10.25;89.52
74613;BME280;63119;51.788;8.824;2024-03-22T02:29:38;100419.13;;;10.32;89.47
74613;BME280;63119;51.788;8.824;2024-03-22T02:32:04;100418.75;;;10.38;89.73
74613;BME280;63119;51.788;8.824;2024-03-22T02:34:29;100413.28;;;10.41;88.47
74613;BME280;63119;51.788;8.824;2024-03-22T02:36:54;100408.19;;;10.38;89.65
74613;BME280;63119;51.788;8.824;2024-03-22T02:39:20;100413.59;;;10.36;89.29
74613;BME280;63119;51.788;8.824;2024-03-22T02:41:45;100399.88;;;10.30;90.67
74613;BME280;63119;51.788;8.824;2024-03-22T02:44:10;100394.88;;;10.39;89.88
74613;BME280;63119;51.788;8.824;2024-03-22T02:46:35;100385.59;;;10.47;89.03
74613;BME280;63119;51.788;8.824;2024-03-22T02:49:01;100387.78;;;10.40;89.27
74613;BME280;63119;51.788;8.824;2024-03-22T02:51:26;100389.19;;;10.31;89.57
74613;BME280;63119;51.788;8.824;2024-03-22T02:53:51;100379.66;;;10.43;89.43
74613;BME280;63119;51.788;8.824;2024-03-22T02:56:16;100375.63;;;10.52;88.62
74613;BME280;63119;51.788;8.824;2024-03-22T02:58:41;100374.94;;;10.48;89.19
74613;BME280;63119;51.788;8.824;2024-03-22T03:01:07;100371.72;;;10.57;88.89
74613;BME280;63119;51.788;8.824;2024-03-22T03:03:32;100362.63;;;10.61;87.90
74613;BME280;63119;51.788;8.824;2024-03-22T03:05:57;100353.41;;;10.54;88.52
74613;BME280;63119;51.788;8.824;2024-03-22T03:08:22;100356.22;;;10.65;88.04
74613;BME280;63119;51.788;8.824;2024-03-22T03:10:48;100359.72;;;10.66;87.66
74613;BME280;63119;51.788;8.824;2024-03-22T03:13:13;100360.38;;;10.69;87.72
74613;BME280;63119;51.788;8.824;2024-03-22T03:15:38;100355.84;;;10.71;87.79
74613;BME280;63119;51.788;8.824;2024-03-22T03:18:04;100352.25;;;10.72;87.57
74613;BME280;63119;51.788;8.824;2024-03-22T03:20:29;100342.72;;;10.70;88.17
74613;BME280;63119;51.788;8.824;2024-03-22T03:22:54;100335.91;;;10.66;88.58
74613;BME280;63119;51.788;8.824;2024-03-22T03:25:20;100337.88;;;10.62;88.15
74613;BME280;63119;51.788;8.824;2024-03-22T03:27:45;100335.91;;;10.66;87.89
74613;BME280;63119;51.788;8.824;2024-03-22T03:30:11;100337.31;;;10.71;88.25
74613;BME280;63119;51.788;8.824;2024-03-22T03:32:36;100337.88;;;10.62;88.41
74613;BME280;63119;51.788;8.824;2024-03-22T03:35:01;100348.09;;;10.68;88.46
74613;BME280;63119;51.788;8.824;2024-03-22T03:37:27;100342.72;;;10.70;88.53
74613;BME280;63119;51.788;8.824;2024-03-22T03:39:52;100344.59;;;10.68;88.63
74613;BME280;63119;51.788;8.824;2024-03-22T03:42:17;100339.97;;;10.71;88.07
74613;BME280;63119;51.788;8.824;2024-03-22T03:44:42;100337.84;;;10.76;88.42
74613;BME280;63119;51.788;8.824;2024-03-22T03:47:08;100323.41;;;10.68;88.94
74613;BME280;63119;51.788;8.824;2024-03-22T03:49:33;100326.19;;;10.66;89.86
74613;BME280;63119;51.788;8.824;2024-03-22T03:51:58;100326.84;;;10.70;89.20
74613;BME280;63119;51.788;8.824;2024-03-22T03:54:24;100329.47;;;10.70;88.79
74613;BME280;63119;51.788;8.824;2024-03-22T03:56:49;100322.16;;;10.73;88.33
74613;BME280;63119;51.788;8.824;2024-03-22T03:59:14;100326.66;;;10.73;88.72
74613;BME280;63119;51.788;8.824;2024-03-22T04:01:39;100324.63;;;10.76;88.94
74613;BME280;63119;51.788;8.824;2024-03-22T04:04:04;100317.25;;;10.67;89.06
74613;BME280;63119;51.788;8.824;2024-03-22T04:06:30;100314.44;;;10.70;89.25
74613;BME280;63119;51.788;8.824;2024-03-22T04:08:55;100302.34;;;10.66;89.53
74613;BME280;63119;51.788;8.824;2024-03-22T04:11:20;100299.13;;;10.61;89.43
74613;BME280;63119;51.788;8.824;2024-03-22T04:13:45;100293.00;;;10.61;89.53
74613;BME280;63119;51.788;8.824;2024-03-22T04:16:12;100284.22;;;10.60;90.09
74613;BME280;63119;51.788;8.824;2024-03-22T04:18:38;100284.22;;;10.46;90.57
74613;BME280;63119;51.788;8.824;2024-03-22T04:21:04;100280.75;;;10.46;91.59
74613;BME280;63119;51.788;8.824;2024-03-22T04:23:29;100270.34;;;10.43;91.09
74613;BME280;63119;51.788;8.824;2024-03-22T04:25:58;100261.44;;;10.43;91.29
74613;BME280;63119;51.788;8.824;2024-03-22T04:28:25;100262.03;;;10.34;91.28
74613;BME280;63119;51.788;8.824;2024-03-22T04:31:00;100261.38;;;10.31;92.18
74613;BME280;63119;51.788;8.824;2024-03-22T04:33:27;100261.84;;;10.37;91.63
74613;BME280;63119;51.788;8.824;2024-03-22T04:35:53;100250.59;;;10.34;91.13
74613;BME280;63119;51.788;8.824;2024-03-22T04:38:18;100255.31;;;10.43;90.77
74613;BME280;63119;51.788;8.824;2024-03-22T04:40:44;100259.59;;;10.46;91.65
74613;BME280;63119;51.788;8.824;2024-03-22T04:43:09;100241.34;;;10.41;90.87
74613;BME280;63119;51.788;8.824;2024-03-22T04:45:34;100232.28;;;10.45;90.55
74613;BME280;63119;51.788;8.824;2024-03-22T04:48:04;100237.75;;;10.42;92.17
74613;BME280;63119;51.788;8.824;2024-03-22T04:50:32;100236.59;;;10.46;91.60
74613;BME280;63119;51.788;8.824;2024-03-22T04:52:57;100233.41;;;10.41;91.57
74613;BME280;63119;51.788;8.824;2024-03-22T04:55:23;100226.97;;;10.45;91.76
74613;BME280;63119;51.788;8.824;2024-03-22T04:57:48;100233.56;;;10.52;91.03
74613;BME280;63119;51.788;8.824;2024-03-22T05:00:14;100226.47;;;10.53;90.96
74613;BME280;63119;51.788;8.824;2024-03-22T05:02:39;100224.81;;;10.52;90.70
74613;BME280;63119;51.788;8.824;2024-03-22T05:05:05;100225.53;;;10.54;90.25
74613;BME280;63119;51.788;8.824;2024-03-22T05:07:30;100228.66;;;10.46;91.46
74613;BME280;63119;51.788;8.824;2024-03-22T05:09:56;100222.25;;;10.50;91.01
74613;BME280;63119;51.788;8.824;2024-03-22T05:12:21;100216.28;;;10.47;90.93
74613;BME280;63119;51.788;8.824;2024-03-22T05:14:46;100214.31;;;10.50;91.46
74613;BME280;63119;51.788;8.824;2024-03-22T05:17:12;100205.72;;;10.47;91.16
74613;BME280;63119;51.788;8.824;2024-03-22T05:19:37;100212.59;;;10.49;91.38
74613;BME280;63119;51.788;8.824;2024-03-22T05:22:02;100207.31;;;10.49;90.91
74613;BME280;63119;51.788;8.824;2024-03-22T05:24:28;100205.63;;;10.48;91.29
74613;BME280;63119;51.788;8.824;2024-03-22T05:26:53;100206.94;;;10.41;92.07
74613;BME280;63119;51.788;8.824;2024-03-22T05:29:18;100210.59;;;10.53;91.54
74613;BME280;63119;51.788;8.824;2024-03-22T05:31:48;100205.22;;;10.54;90.98
74613;BME280;63119;51.788;8.824;2024-03-22T05:34:15;100207.88;;;10.54;91.26
74613;BME280;63119;51.788;8.824;2024-03-22T05:36:41;100203.97;;;10.60;90.92
74613;BME280;63119;51.788;8.824;2024-03-22T05:39:06;100202.72;;;10.65;90.55
74613;BME280;63119;51.788;8.824;2024-03-22T05:41:31;100199.53;;;10.60;90.52
74613;BME280;63119;51.788;8.824;2024-03-22T05:43:57;100197.63;;;10.62;90.55
74613;BME280;63119;51.788;8.824;2024-03-22T05:46:22;100194.41;;;10.71;90.02
74613;BME280;63119;51.788;8.824;2024-03-22T05:48:47;100199.41;;;10.76;89.98
74613;BME280;63119;51.788;8.824;2024-03-22T05:51:15;100189.94;;;10.72;89.41
74613;BME280;63119;51.788;8.824;2024-03-22T05:53:40;100198.34;;;10.78;89.13
74613;BME280;63119;51.788;8.824;2024-03-22T05:56:07;100203.00;;;10.75;89.93
74613;BME280;63119;51.788;8.824;2024-03-22T05:58:32;100193.91;;;10.79;90.32
74613;BME280;63119;51.788;8.824;2024-03-22T06:00:57;100202.06;;;10.88;88.99
74613;BME280;63119;51.788;8.824;2024-03-22T06:03:23;100194.31;;;10.85;89.80
74613;BME280;63119;51.788;8.824;2024-03-22T06:05:48;100194.91;;;10.90;90.09
74613;BME280;63119;51.788;8.824;2024-03-22T06:08:14;100196.56;;;10.91;89.88
74613;BME280;63119;51.788;8.824;2024-03-22T06:10:44;100192.69;;;10.97;89.68
74613;BME280;63119;51.788;8.824;2024-03-22T06:13:09;100179.34;;;10.98;89.53
74613;BME280;63119;51.788;8.824;2024-03-22T06:15:34;100187.81;;;11.04;90.08
74613;BME280;63119;51.788;8.824;2024-03-22T06:17:59;100199.91;;;11.08;89.21
74613;BME280;63119;51.788;8.824;2024-03-22T06:20:25;100198.25;;;11.19;89.49
74613;BME280;63119;51.788;8.824;2024-03-22T06:22:50;100192.50;;;11.13;89.33
74613;BME280;63119;51.788;8.824;2024-03-22T06:25:15;100186.16;;;11.28;88.10
74613;BME280;63119;51.788;8.824;2024-03-22T06:27:40;100187.25;;;11.38;87.64
74613;BME280;63119;51.788;8.824;2024-03-22T06:30:06;100195.09;;;11.52;88.43
74613;BME280;63119;51.788;8.824;2024-03-22T06:32:31;100188.66;;;11.56;86.94
74613;BME280;63119;51.788;8.824;2024-03-22T06:34:57;100192.94;;;11.71;86.90
74613;BME280;63119;51.788;8.824;2024-03-22T06:37:22;100187.75;;;11.82;86.20
74613;BME280;63119;51.788;8.824;2024-03-22T06:39:47;100185.16;;;12.19;84.57
74613;BME280;63119;51.788;8.824;2024-03-22T06:42:12;100186.25;;;12.03;84.85
74613;BME280;63119;51.788;8.824;2024-03-22T06:44:37;100189.13;;;12.00;85.19
74613;BME280;63119;51.788;8.824;2024-03-22T06:47:03;100189.84;;;12.02;85.73
74613;BME280;63119;51.788;8.824;2024-03-22T06:49:28;100172.66;;;11.95;85.36
74613;BME280;63119;51.788;8.824;2024-03-22T06:51:53;100177.72;;;12.11;84.98
74613;BME280;63119;51.788;8.824;2024-03-22T06:54:18;100167.47;;;12.07;84.72
74613;BME280;63119;51.788;8.824;2024-03-22T06:56:44;100159.22;;;12.22;84.10
74613;BME280;63119;51.788;8.824;2024-03-22T06:59:09;100153.63;;;12.50;83.58
74613;BME280;63119;51.788;8.824;2024-03-22T07:01:34;100153.13;;;12.45;83.36
74613;BME280;63119;51.788;8.824;2024-03-22T07:04:00;100157.06;;;12.40;83.42
74613;BME280;63119;51.788;8.824;2024-03-22T07:06:25;100142.50;;;12.22;84.50
74613;BME280;63119;51.788;8.824;2024-03-22T07:08:50;100157.53;;;12.34;84.20
74613;BME280;63119;51.788;8.824;2024-03-22T07:11:15;100156.75;;;12.32;84.35
74613;BME280;63119;51.788;8.824;2024-03-22T07:13:41;100159.84;;;12.26;85.08
74613;BME280;63119;51.788;8.824;2024-03-22T07:16:06;100158.25;;;12.36;84.74
74613;BME280;63119;51.788;8.824;2024-03-22T07:18:31;100150.59;;;12.31;84.87
74613;BME280;63119;51.788;8.824;2024-03-22T07:20:56;100148.59;;;12.35;84.90
74613;BME280;63119;51.788;8.824;2024-03-22T07:23:26;100147.50;;;12.37;84.42
74613;BME280;63119;51.788;8.824;2024-03-22T07:25:51;100151.41;;;12.44;83.70
74613;BME280;63119;51.788;8.824;2024-03-22T07:28:16;100149.13;;;12.40;84.04
74613;BME280;63119;51.788;8.824;2024-03-22T07:30:42;100150.13;;;12.50;83.46
74613;BME280;63119;51.788;8.824;2024-03-22T07:33:07;100137.59;;;12.52;82.79
74613;BME280;63119;51.788;8.824;2024-03-22T07:35:34;100146.38;;;12.52;82.18
74613;BME280;63119;51.788;8.824;2024-03-22T07:38:00;100142.34;;;12.59;82.19
74613;BME280;63119;51.788;8.824;2024-03-22T07:40:25;100142.09;;;12.63;82.46
74613;BME280;63119;51.788;8.824;2024-03-22T07:42:50;100142.97;;;12.63;82.05
74613;BME280;63119;51.788;8.824;2024-03-22T07:45:16;100134.09;;;12.75;81.61
74613;BME280;63119;51.788;8.824;2024-03-22T07:47:41;100141.38;;;12.84;81.71
74613;BME280;63119;51.788;8.824;2024-03-22T07:50:08;100124.75;;;12.93;80.63
74613;BME280;63119;51.788;8.824;2024-03-22T07:52:33;100134.91;;;12.99;80.78
74613;BME280;63119;51.788;8.824;2024-03-22T07:54:59;100125.94;;;13.13;79.43
74613;BME280;63119;51.788;8.824;2024-03-22T07:57:27;100114.22;;;13.16;79.06
74613;BME280;63119;51.788;8.824;2024-03-22T07:59:52;100117.13;;;13.24;79.22
74613;BME280;63119;51.788;8.824;2024-03-22T08:02:17;100106.47;;;13.12;78.86
74613;BME280;63119;51.788;8.824;2024-03-22T08:04:42;100110.09;;;13.11;79.13
74613;BME280;63119;51.788;8.824;2024-03-22T08:07:08;100106.41;;;13.25;78.88
74613;BME280;63119;51.788;8.824;2024-03-22T08:09:33;100100.09;;;13.15;79.16
74613;BME280;63119;51.788;8.824;2024-03-22T08:11:58;100111.09;;;13.22;78.76
74613;BME280;63119;51.788;8.824;2024-03-22T08:14:24;100105.03;;;13.20;78.90
74613;BME280;63119;51.788;8.824;2024-03-22T08:16:49;100096.47;;;13.27;77.91
74613;BME280;63119;51.788;8.824;2024-03-22T08:19:14;100100.00;;;13.39;78.09
74613;BME280;63119;51.788;8.824;2024-03-22T08:21:41;100100.72;;;13.30;77.59
74613;BME280;63119;51.788;8.824;2024-03-22T08:24:06;100104.69;;;13.35;78.27
74613;BME280;63119;51.788;8.824;2024-03-22T08:26:31;100107.97;;;13.39;77.65
74613;BME280;63119;51.788;8.824;2024-03-22T08:28:56;100097.34;;;13.39;77.82
74613;BME280;63119;51.788;8.824;2024-03-22T08:31:22;100091.22;;;13.49;78.08
74613;BME280;63119;51.788;8.824;2024-03-22T08:33:51;100092.03;;;13.50;77.26
74613;BME280;63119;51.788;8.824;2024-03-22T08:36:16;100092.03;;;13.50;77.58
74613;BME280;63119;51.788;8.824;2024-03-22T08:38:41;100085.66;;;13.52;77.30
74613;BME280;63119;51.788;8.824;2024-03-22T08:41:07;100100.28;;;13.58;76.78
74613;BME280;63119;51.788;8.824;2024-03-22T08:43:32;100090.09;;;13.63;76.64
74613;BME280;63119;51.788;8.824;2024-03-22T08:45:57;100079.00;;;13.58;76.75
74613;BME280;63119;51.788;8.824;2024-03-22T08:48:23;100076.56;;;13.66;76.58
74613;BME280;63119;51.788;8.824;2024-03-22T08:50:48;100085.25;;;13.68;75.78
74613;BME280;63119;51.788;8.824;2024-03-22T08:53:13;100079.94;;;13.68;76.48
74613;BME280;63119;51.788;8.824;2024-03-22T08:55:45;100080.44;;;13.73;76.47
74613;BME280;63119;51.788;8.824;2024-03-22T08:58:10;100079.13;;;13.67;76.00
74613;BME280;63119;51.788;8.824;2024-03-22T09:00:35;100090.56;;;13.68;76.10
74613;BME280;63119;51.788;8.824;2024-03-22T09:03:03;100075.47;;;13.68;76.22
74613;BME280;63119;51.788;8.824;2024-03-22T09:05:28;100075.97;;;13.74;76.25
74613;BME280;63119;51.788;8.824;2024-03-22T09:07:54;100079.56;;;13.84;75.83
74613;BME280;63119;51.788;8.824;2024-03-22T09:10:20;100072.09;;;13.89;75.56
74613;BME280;63119;51.788;8.824;2024-03-22T09:12:46;100070.84;;;13.93;75.56
74613;BME280;63119;51.788;8.824;2024-03-22T09:15:11;100077.25;;;14.01;74.44
74613;BME280;63119;51.788;8.824;2024-03-22T09:17:36;100066.97;;;14.08;73.74
74613;BME280;63119;51.788;8.824;2024-03-22T09:20:01;100059.47;;;14.13;74.07
74613;BME280;63119;51.788;8.824;2024-03-22T09:22:29;100052.75;;;14.30;73.81
74613;BME280;63119;51.788;8.824;2024-03-22T09:24:54;100053.03;;;14.38;72.21
74613;BME280;63119;51.788;8.824;2024-03-22T09:27:20;100050.72;;;14.33;72.15
74613;BME280;63119;51.788;8.824;2024-03-22T09:29:45;100046.09;;;14.46;72.12
74613;BME280;63119;51.788;8.824;2024-03-22T09:32:10;100040.00;;;14.55;71.42
74613;BME280;63119;51.788;8.824;2024-03-22T09:34:35;100025.75;;;14.66;71.62
74613;BME280;63119;51.788;8.824;2024-03-22T09:37:01;100018.50;;;14.68;69.89
74613;BME280;63119;51.788;8.824;2024-03-22T09:39:27;100029.03;;;14.90;69.06
74613;BME280;63119;51.788;8.824;2024-03-22T09:41:54;100025.09;;;15.15;68.20
74613;BME280;63119;51.788;8.824;2024-03-22T09:44:23;100026.88;;;15.35;67.27
74613;BME280;63119;51.788;8.824;2024-03-22T09:46:50;100021.16;;;15.70;64.28
74613;BME280;63119;51.788;8.824;2024-03-22T09:49:15;100008.97;;;15.77;63.59
74613;BME280;63119;51.788;8.824;2024-03-22T09:51:43;100002.50;;;15.70;64.30
74613;BME280;63119;51.788;8.824;2024-03-22T09:54:11;100008.72;;;15.80;64.48
74613;BME280;63119;51.788;8.824;2024-03-22T09:56:39;100007.25;;;15.66;64.36
74613;BME280;63119;51.788;8.824;2024-03-22T09:59:05;100008.09;;;15.67;64.55
74613;BME280;63119;51.788;8.824;2024-03-22T10:01:32;99993.84;;;15.47;64.60
74613;BME280;63119;51.788;8.824;2024-03-22T10:03:59;100004.53;;;15.26;65.65
74613;BME280;63119;51.788;8.824;2024-03-22T10:06:24;99999.31;;;15.15;65.80
74613;BME280;63119;51.788;8.824;2024-03-22T10:08:50;99998.34;;;15.16;66.33
74613;BME280;63119;51.788;8.824;2024-03-22T10:11:15;99987.13;;;15.22;66.18
74613;BME280;63119;51.788;8.824;2024-03-22T10:13:40;99992.47;;;15.22;66.25
74613;BME280;63119;51.788;8.824;2024-03-22T10:16:06;99992.00;;;15.17;66.44
74613;BME280;63119;51.788;8.824;2024-03-22T10:18:32;99988.63;;;15.15;66.07
74613;BME280;63119;51.788;8.824;2024-03-22T10:21:04;99997.06;;;15.20;65.18
74613;BME280;63119;51.788;8.824;2024-03-22T10:23:31;99996.78;;;14.93;65.09
74613;BME280;63119;51.788;8.824;2024-03-22T10:25:57;99989.25;;;14.98;64.90
74613;BME280;63119;51.788;8.824;2024-03-22T10:28:26;99979.03;;;15.03;64.43
74613;BME280;63119;51.788;8.824;2024-03-22T10:30:52;99978.19;;;15.03;63.97
74613;BME280;63119;51.788;8.824;2024-03-22T10:33:19;99989.00;;;15.01;63.92
74613;BME280;63119;51.788;8.824;2024-03-22T10:35:46;99981.91;;;14.91;63.93
74613;BME280;63119;51.788;8.824;2024-03-22T10:38:12;99980.28;;;14.99;64.21
74613;BME280;63119;51.788;8.824;2024-03-22T10:40:39;99973.28;;;14.98;64.45
74613;BME280;63119;51.788;8.824;2024-03-22T10:43:04;99962.47;;;15.00;64.92
74613;BME280;63119;51.788;8.824;2024-03-22T10:45:29;99964.03;;;15.02;65.19
74613;BME280;63119;51.788;8.824;2024-03-22T10:47:55;99965.81;;;15.22;65.21
74613;BME280;63119;51.788;8.824;2024-03-22T10:50:22;99961.81;;;15.38;65.20
74613;BME280;63119;51.788;8.824;2024-03-22T10:52:52;99951.28;;;15.46;64.91
74613;BME280;63119;51.788;8.824;2024-03-22T10:55:22;99947.72;;;15.66;63.08
74613;BME280;63119;51.788;8.824;2024-03-22T10:57:49;99953.38;;;15.82;63.40
74613;BME280;63119;51.788;8.824;2024-03-22T11:00:16;99942.09;;;15.50;60.41
74613;BME280;63119;51.788;8.824;2024-03-22T11:02:43;99941.84;;;15.72;59.68
74613;BME280;63119;51.788;8.824;2024-03-22T11:05:16;99938.50;;;15.79;58.36
74613;BME280;63119;51.788;8.824;2024-03-22T11:07:43;99945.94;;;15.76;57.78
74613;BME280;63119;51.788;8.824;2024-03-22T11:10:11;99938.78;;;15.86;56.59
74613;BME280;63119;51.788;8.824;2024-03-22T11:12:40;99943.00;;;15.98;56.35
74613;BME280;63119;51.788;8.824;2024-03-22T11:15:06;99935.97;;;15.88;54.48
74613;BME280;63119;51.788;8.824;2024-03-22T11:17:31;99941.75;;;15.93;54.45
74613;BME280;63119;51.788;8.824;2024-03-22T11:19:57;99932.63;;;15.95;54.25
74613;BME280;63119;51.788;8.824;2024-03-22T11:22:22;99930.50;;;15.89;54.58
74613;BME280;63119;51.788;8.824;2024-03-22T11:24:47;99927.09;;;15.87;54.65
74613;BME280;63119;51.788;8.824;2024-03-22T11:27:13;99918.00;;;15.90;54.07
74613;BME280;63119;51.788;8.824;2024-03-22T11:29:39;99911.66;;;15.81;54.47
74613;BME280;63119;51.788;8.824;2024-03-22T11:32:07;99917.44;;;16.05;54.40
74613;BME280;63119;51.788;8.824;2024-03-22T11:34:39;99912.66;;;16.18;54.01
74613;BME280;63119;51.788;8.824;2024-03-22T11:37:06;99905.06;;;16.23;54.01
74613;BME280;63119;51.788;8.824;2024-03-22T11:39:36;99913.75;;;16.45;53.85
74613;BME280;63119;51.788;8.824;2024-03-22T11:42:06;99903.91;;;16.35;52.59
74613;BME280;63119;51.788;8.824;2024-03-22T11:44:33;99894.75;;;16.48;52.44
74613;BME280;63119;51.788;8.824;2024-03-22T11:46:58;99908.84;;;16.40;53.71
74613;BME280;63119;51.788;8.824;2024-03-22T11:49:24;99900.56;;;16.24;55.45
74613;BME280;63119;51.788;8.824;2024-03-22T11:51:51;99897.72;;;16.45;55.16
74613;BME280;63119;51.788;8.824;2024-03-22T11:54:19;99892.44;;;16.25;56.16
74613;BME280;63119;51.788;8.824;2024-03-22T11:56:45;99895.50;;;16.21;55.87
74613;BME280;63119;51.788;8.824;2024-03-22T11:59:10;99894.69;;;16.11;55.90
74613;BME280;63119;51.788;8.824;2024-03-22T12:01:35;99892.84;;;16.11;55.36
74613;BME280;63119;51.788;8.824;2024-03-22T12:04:01;99884.28;;;16.08;55.02
74613;BME280;63119;51.788;8.824;2024-03-22T12:06:26;99885.41;;;15.86;55.61
74613;BME280;63119;51.788;8.824;2024-03-22T12:08:51;99879.81;;;15.89;54.55
74613;BME280;63119;51.788;8.824;2024-03-22T12:11:17;99874.75;;;15.86;55.63
74613;BME280;63119;51.788;8.824;2024-03-22T12:13:42;99872.94;;;15.87;56.59
74613;BME280;63119;51.788;8.824;2024-03-22T12:16:07;99870.25;;;15.87;56.79
74613;BME280;63119;51.788;8.824;2024-03-22T12:18:33;99867.00;;;15.73;56.23
74613;BME280;63119;51.788;8.824;2024-03-22T12:20:59;99874.16;;;15.73;57.06
74613;BME280;63119;51.788;8.824;2024-03-22T12:23:24;99868.84;;;15.73;57.48
74613;BME280;63119;51.788;8.824;2024-03-22T12:25:50;99865.03;;;15.75;57.92
74613;BME280;63119;51.788;8.824;2024-03-22T12:28:16;99872.34;;;15.83;58.00
74613;BME280;63119;51.788;8.824;2024-03-22T12:30:41;99861.69;;;15.73;58.61
74613;BME280;63119;51.788;8.824;2024-03-22T12:33:08;99874.03;;;15.74;59.01
74613;BME280;63119;51.788;8.824;2024-03-22T12:35:35;99855.47;;;15.63;59.32
74613;BME280;63119;51.788;8.824;2024-03-22T12:38:00;99858.00;;;15.55;60.51
74613;BME280;63119;51.788;8.824;2024-03-22T12:40:26;99855.34;;;15.55;60.62
74613;BME280;63119;51.788;8.824;2024-03-22T12:42:52;99854.22;;;15.58;61.30
74613;BME280;63119;51.788;8.824;2024-03-22T12:45:17;99851.41;;;15.50;60.82